Time;durP1;ratioP1;P1;durP2;ratioP2;P2;SDS_P1;SDS_P2;PMS_P1;PMS_P2;Temp;Humidity;BMP_temperature;BMP_pressure;BME280_temperature;BME280_humidity;BME280_pressure;Samples;Min_cycle;Max_cycle;Signal;HPM_P1;HPM_P2
2022/08/12 00:52:04;;;;;;;4.47;2.72;;;;;;;21.03;43.21;96006.91;10329655;28;97015;-64
2022/08/12 00:56:49;;;;;;;3.90;3.30;;;;;;;20.88;43.71;95989.50;10327846;28;97165;-61
2022/08/12 01:01:55;;;;;;;2.95;2.40;;;;;;;20.69;44.22;95998.44;10331946;28;96816;-61
2022/08/12 01:12:38;;;;;;;4.20;2.58;;;;;;;20.41;44.90;96004.13;10331555;28;99298;-62
2022/08/12 01:17:44;;;;;;;4.50;2.90;;;;;;;20.33;45.06;96003.38;10338031;28;96871;-61
2022/08/12 01:23:08;;;;;;;3.30;2.80;;;;;;;20.14;45.21;96006.97;10333470;28;97257;-62
2022/08/12 01:28:14;;;;;;;5.22;2.58;;;;;;;20.03;45.26;96003.19;10331213;28;97866;-61
2022/08/12 01:33:21;;;;;;;3.58;2.80;;;;;;;19.92;45.16;96002.03;10340623;28;96928;-61
2022/08/12 01:38:26;;;;;;;3.60;2.50;;;;;;;19.81;45.08;95995.50;10346166;28;98492;-61
2022/08/12 01:43:34;;;;;;;6.82;2.80;;;;;;;19.89;45.81;96006.94;10337537;28;98547;-61
2022/08/12 01:48:55;;;;;;;4.78;2.92;;;;;;;19.81;45.07;96000.00;10341234;28;96803;-61
2022/08/12 01:54:05;;;;;;;3.25;2.83;;;;;;;19.78;45.18;95997.75;10338371;28;96877;-61
2022/08/12 02:15:59;;;;;;;4.20;2.85;;;;;;;19.49;46.15;95999.09;10340937;28;98603;-61
2022/08/12 02:21:05;;;;;;;3.35;2.88;;;;;;;19.33;46.70;95992.44;10334985;28;98421;-62
2022/08/12 02:26:09;;;;;;;3.55;2.75;;;;;;;19.16;47.71;95994.75;10345454;28;96880;-65
2022/08/12 02:31:14;;;;;;;3.10;2.80;;;;;;;19.06;47.65;95988.03;10350216;28;96900;-61
2022/08/12 02:36:18;;;;;;;4.07;2.85;;;;;;;18.95;48.37;95987.84;10352579;28;96808;-63
2022/08/12 02:41:25;;;;;;;4.20;3.13;;;;;;;18.85;47.94;95986.41;10337545;28;97902;-61
2022/08/12 02:46:33;;;;;;;3.42;2.72;;;;;;;18.76;48.81;95987.66;10351989;28;98909;-61
2022/08/12 02:51:41;;;;;;;4.60;3.08;;;;;;;18.72;49.07;95983.78;10346268;28;97603;-61
2022/08/12 02:56:44;;;;;;;5.43;3.20;;;;;;;18.74;49.17;95981.75;10346267;28;99193;-61
2022/08/12 03:01:55;;;;;;;4.13;2.97;;;;;;;18.54;49.37;95971.19;10348522;28;97671;-61
2022/08/12 03:07:09;;;;;;;4.03;2.97;;;;;;;18.41;49.97;95969.38;10343481;28;99213;-62
2022/08/12 03:12:13;;;;;;;6.40;3.30;;;;;;;18.31;50.65;95968.94;10350857;28;97648;-61
2022/08/12 03:17:29;;;;;;;3.78;2.78;;;;;;;18.25;50.93;95970.56;10338579;28;97154;-61
2022/08/12 03:22:34;;;;;;;4.15;3.40;;;;;;;18.21;50.99;95963.25;10348366;28;98519;-61
2022/08/12 03:27:54;;;;;;;6.22;3.95;;;;;;;18.18;50.33;95967.09;10335084;28;97720;-60
2022/08/12 03:33:00;;;;;;;4.97;2.80;;;;;;;18.05;51.19;95978.47;10340460;28;98977;-61
2022/08/12 03:38:05;;;;;;;4.03;3.00;;;;;;;17.96;51.75;95982.34;10346141;28;97374;-61
2022/08/12 04:04:45;;;;;;;4.80;3.10;;;;;;;17.69;52.20;95966.38;10351507;28;98579;-61
2022/08/12 04:09:48;;;;;;;4.07;3.17;;;;;;;17.71;52.55;95959.03;10344129;28;97103;-61
2022/08/12 04:14:52;;;;;;;4.15;3.45;;;;;;;17.69;52.91;95963.72;10337806;28;98438;-61
2022/08/12 04:19:57;;;;;;;4.75;3.88;;;;;;;17.64;52.89;95963.50;10336584;28;96789;-61
2022/08/12 04:25:00;;;;;;;3.50;3.20;;;;;;;17.53;53.76;95959.63;10338158;28;99032;-64
2022/08/12 04:30:06;;;;;;;4.82;3.97;;;;;;;17.41;54.62;95963.84;10334094;28;96986;-60
2022/08/12 04:35:30;;;;;;;3.97;3.00;;;;;;;17.35;54.08;95965.44;10317936;28;98451;-61
2022/08/12 04:40:35;;;;;;;;;;;;;;;17.35;53.25;95965.44;10348486;28;98512;-61
2022/08/12 04:45:38;;;;;;;4.13;3.70;;;;;;;17.29;54.16;95976.78;10344687;28;98806;-62
2022/08/12 04:50:44;;;;;;;5.72;3.85;;;;;;;17.24;55.25;95966.00;10344552;28;98796;-61
2022/08/12 04:55:47;;;;;;;4.53;3.92;;;;;;;17.22;55.30;95961.94;10338826;28;100619;-61
2022/08/12 05:00:50;;;;;;;6.38;3.90;;;;;;;17.12;55.82;95955.16;10339592;28;98400;-61
2022/08/12 05:05:55;;;;;;;6.30;3.95;;;;;;;17.18;55.26;95964.16;10329680;28;99070;-60
2022/08/12 05:10:58;;;;;;;5.03;3.45;;;;;;;17.30;54.83;95957.31;10349605;28;98864;-61
2022/08/12 05:16:01;;;;;;;5.55;3.58;;;;;;;17.41;55.04;95963.03;10343364;28;97724;-61
2022/08/12 05:21:12;;;;;;;6.55;3.60;;;;;;;17.53;54.83;95964.09;10346611;28;99116;-61
2022/08/12 05:26:15;;;;;;;6.77;3.20;;;;;;;17.60;54.29;95967.56;10342517;28;97556;-60
2022/08/12 05:31:17;;;;;;;3.72;3.35;;;;;;;17.69;52.92;95971.66;10341889;28;96946;-62
2022/08/12 05:36:43;;;;;;;5.95;3.63;;;;;;;17.85;54.35;95977.63;10336260;28;96802;-61
2022/08/12 05:41:46;;;;;;;4.05;3.50;;;;;;;17.95;53.15;95972.75;10348479;28;97413;-61
2022/08/12 05:46:49;;;;;;;7.18;3.28;;;;;;;18.05;54.12;95969.75;10340669;28;98046;-61
2022/08/12 05:51:53;;;;;;;3.55;3.20;;;;;;;18.21;53.53;95968.53;10338274;28;98878;-61
2022/08/12 05:56:56;;;;;;;5.80;3.38;;;;;;;18.33;52.85;95972.19;10336218;28;96923;-61
2022/08/12 06:02:02;;;;;;;5.95;3.88;;;;;;;18.36;53.61;95971.81;10342072;28;97154;-61
2022/08/12 06:07:17;;;;;;;5.07;4.10;;;;;;;18.55;53.73;95980.75;10352041;28;96810;-61
2022/08/12 06:12:41;;;;;;;5.25;4.00;;;;;;;18.84;54.63;95971.53;10337630;28;97020;-61
2022/08/12 06:17:44;;;;;;;8.57;4.20;;;;;;;19.02;54.51;95968.28;10338035;28;97291;-61
2022/08/12 06:22:49;;;;;;;6.88;3.80;;;;;;;19.17;54.31;95968.03;10343263;28;98489;-61
2022/08/12 06:27:58;;;;;;;8.73;3.60;;;;;;;19.35;52.73;95972.69;10334795;28;98423;-61
2022/08/12 06:33:10;;;;;;;4.40;3.35;;;;;;;19.46;52.32;95965.09;10355898;28;96818;-61
2022/08/12 06:38:29;;;;;;;5.78;3.70;;;;;;;19.57;52.78;95967.88;10355503;28;96790;-61
2022/08/12 06:43:32;;;;;;;4.60;3.60;;;;;;;19.82;53.15;95969.84;10343676;28;96743;-60
2022/08/12 06:48:57;;;;;;;4.20;3.15;;;;;;;20.06;51.58;95972.75;10330882;28;98656;-60
2022/08/12 06:54:02;;;;;;;4.10;3.00;;;;;;;20.22;51.76;95976.72;10338462;28;97346;-60
2022/08/12 06:59:05;;;;;;;5.55;3.08;;;;;;;20.34;51.14;95973.19;10339255;28;96791;-61
2022/08/12 07:04:08;;;;;;;3.95;3.00;;;;;;;20.42;50.28;95960.69;10338851;28;97181;-61
2022/08/12 07:09:32;;;;;;;4.88;2.80;;;;;;;20.52;50.26;95967.13;10327872;28;96885;-60
2022/08/12 07:14:55;;;;;;;4.10;2.72;;;;;;;20.59;49.84;95961.75;10338518;28;97221;-61
2022/08/12 07:19:58;;;;;;;3.80;2.90;;;;;;;20.73;50.08;95963.25;10337520;28;96816;-60
2022/08/12 07:30:30;;;;;;;4.10;2.80;;;;;;;20.99;50.55;95964.06;10337294;28;96761;-60
2022/08/12 07:35:33;;;;;;;4.28;3.25;;;;;;;21.12;50.30;95971.91;10337936;28;97647;-60
2022/08/12 07:40:37;;;;;;;5.57;3.70;;;;;;;21.30;50.33;95970.28;10334463;28;98479;-61
2022/08/12 07:45:40;;;;;;;4.70;2.95;;;;;;;21.38;49.82;95967.31;10333447;28;97976;-60
2022/08/12 07:50:43;;;;;;;4.57;2.88;;;;;;;21.46;49.60;95964.34;10337236;28;96836;-60
2022/08/12 07:55:47;;;;;;;4.22;3.20;;;;;;;21.54;49.32;95962.44;10336878;28;97242;-60
2022/08/12 08:00:51;;;;;;;;;;;;;;;21.64;49.04;95963.56;10322793;28;98408;-60
2022/08/12 08:05:55;;;;;;;3.27;2.97;;;;;;;21.69;48.15;95952.22;10333236;28;96841;-61
2022/08/12 08:16:16;;;;;;;3.55;2.80;;;;;;;21.98;47.71;95950.63;10323786;28;97362;-61
2022/08/12 08:21:20;;;;;;;8.85;3.55;;;;;;;22.17;47.37;95942.56;10323450;28;97229;-61
2022/08/12 08:26:25;;;;;;;4.45;2.80;;;;;;;22.35;46.88;95945.16;10318889;28;98034;-60
2022/08/12 08:31:28;;;;;;;4.03;2.47;;;;;;;22.59;46.48;95950.53;10327573;28;97845;-61
2022/08/12 08:36:31;;;;;;;4.45;3.10;;;;;;;22.78;46.24;95953.88;10328740;28;96848;-61
2022/08/12 08:47:20;;;;;;;2.95;2.63;;;;;;;22.95;45.65;95949.47;10190840;28;97319;-61
2022/08/12 08:52:24;;;;;;;;;;;;;;;23.02;45.67;95937.91;10187634;28;97105;-62
2022/08/12 08:57:51;;;;;;;4.65;2.38;;;;;;;23.12;44.66;95938.94;10202466;28;97530;-60
2022/08/12 09:02:54;;;;;;;4.20;2.50;;;;;;;23.23;44.61;95934.63;10193631;28;97712;-62
2022/08/12 09:08:03;;;;;;;3.95;2.58;;;;;;;23.37;43.97;95930.66;10201222;28;97161;-61
2022/08/12 09:13:33;;;;;;;6.32;2.42;;;;;;;23.53;43.39;95929.13;10193109;28;98797;-61
2022/08/12 09:18:56;;;;;;;4.68;2.47;;;;;;;23.69;42.86;95927.56;10198515;28;96967;-61
2022/08/12 09:23:59;;;;;;;4.82;2.30;;;;;;;23.77;42.62;95929.03;10291159;28;98764;-60
2022/08/12 09:29:12;;;;;;;3.92;2.22;;;;;;;23.88;42.38;95914.00;10323025;28;97290;-60
2022/08/12 09:34:17;;;;;;;5.47;2.58;;;;;;;23.80;42.72;95907.22;10324967;28;99709;-62
2022/08/12 09:39:33;;;;;;;3.28;2.40;;;;;;;23.99;42.04;95905.13;10319357;28;100207;-61
2022/08/12 09:50:24;;;;;;;3.30;2.42;;;;;;;24.34;41.70;95901.47;10320062;28;97946;-60
2022/08/12 09:55:27;;;;;;;3.73;2.40;;;;;;;24.36;41.23;95894.03;10338926;28;98128;-61
2022/08/12 10:00:53;;;;;;;4.63;2.38;;;;;;;24.48;40.68;95891.28;10341381;28;97170;-60
2022/08/12 10:05:56;;;;;;;3.10;2.20;;;;;;;24.63;40.44;95877.34;10341483;28;96772;-62
2022/08/12 10:17:01;;;;;;;4.35;2.15;;;;;;;24.96;39.89;95875.69;10339878;28;97099;-61
2022/08/12 10:22:04;;;;;;;2.92;2.30;;;;;;;25.10;39.27;95870.78;10337417;28;96992;-60
2022/08/12 10:33:00;;;;;;;3.72;2.25;;;;;;;25.23;38.77;95855.16;10335219;28;96730;-61
2022/08/12 10:38:04;;;;;;;5.60;2.20;;;;;;;25.35;38.62;95846.97;10339735;28;96972;-61
2022/08/12 10:43:42;;;;;;;4.30;2.20;;;;;;;25.44;38.37;95844.66;10337375;28;96949;-60
2022/08/12 10:49:00;;;;;;;5.75;2.33;;;;;;;25.56;38.19;95840.00;10336335;28;100171;-61
2022/08/12 10:54:25;;;;;;;4.15;2.50;;;;;;;25.68;37.80;95836.38;10324059;28;96841;-60
2022/08/12 10:59:29;;;;;;;4.43;2.38;;;;;;;25.98;37.24;95831.31;10339583;28;97212;-61
2022/08/12 11:04:56;;;;;;;3.73;2.00;;;;;;;26.21;36.78;95825.81;10338079;28;96834;-60
2022/08/12 11:10:00;;;;;;;4.18;2.25;;;;;;;26.32;36.47;95816.84;10327357;28;98285;-60
2022/08/12 11:15:06;;;;;;;2.63;2.17;;;;;;;26.41;36.30;95819.84;10334434;28;98280;-64
2022/08/12 11:20:24;;;;;;;2.30;2.10;;;;;;;26.49;36.18;95814.81;10331783;28;97102;-61
2022/08/12 11:25:32;;;;;;;4.15;2.28;;;;;;;26.50;35.87;95796.84;10336396;28;98440;-61
2022/08/12 11:30:55;;;;;;;3.67;2.20;;;;;;;26.73;35.45;95807.16;10330239;28;96767;-61
2022/08/12 11:36:06;;;;;;;3.23;2.00;;;;;;;27.01;35.02;95793.66;10333827;28;96861;-60
2022/08/12 11:41:18;;;;;;;4.05;2.45;;;;;;;27.22;34.76;95791.84;10341123;28;96834;-62
2022/08/12 11:46:36;;;;;;;3.45;2.15;;;;;;;27.49;34.45;95781.69;10333078;28;97175;-61
2022/08/12 11:51:40;;;;;;;6.35;2.58;;;;;;;27.44;34.27;95768.28;10330868;28;97269;-60
2022/08/12 11:56:43;;;;;;;3.15;1.98;;;;;;;27.65;34.07;95774.50;10336476;28;97673;-60
2022/08/12 12:02:01;;;;;;;2.55;1.98;;;;;;;27.79;33.65;95758.66;10334902;28;98505;-61
2022/08/12 12:07:08;;;;;;;4.13;2.15;;;;;;;27.92;33.22;95756.50;10336272;28;97171;-60
2022/08/12 12:12:13;;;;;;;3.92;2.70;;;;;;;27.78;33.29;95751.66;10336180;28;97664;-60
2022/08/12 12:17:17;;;;;;;3.40;2.15;;;;;;;28.07;32.16;95756.50;10335020;28;96892;-61
2022/08/12 12:22:21;;;;;;;2.10;1.90;;;;;;;28.23;31.84;95739.25;10335529;28;96671;-60
2022/08/12 12:27:48;;;;;;;3.20;1.88;;;;;;;28.48;31.58;95743.00;10334951;28;97928;-61
2022/08/12 12:33:10;;;;;;;5.05;2.40;;;;;;;28.46;31.51;95731.69;10335289;28;96802;-60
2022/08/12 12:38:21;;;;;;;3.55;2.30;;;;;;;28.20;31.69;95725.56;10335594;28;97405;-60
2022/08/12 12:43:27;;;;;;;3.00;1.98;;;;;;;28.13;31.69;95728.53;10334406;28;97123;-61
2022/08/12 12:48:46;;;;;;;4.93;2.08;;;;;;;28.57;31.11;95729.81;10334704;28;96815;-60
2022/08/12 12:53:50;;;;;;;5.07;2.00;;;;;;;28.86;30.83;95716.47;10334402;28;96986;-60
2022/08/12 12:59:11;;;;;;;4.38;2.28;;;;;;;29.23;30.19;95719.78;10315623;28;97060;-60
2022/08/12 13:04:34;;;;;;;2.80;2.22;;;;;;;29.47;29.81;95722.59;10332009;28;96764;-60
2022/08/12 13:09:40;;;;;;;3.63;1.90;;;;;;;29.47;29.82;95719.91;10334400;28;98460;-60
2022/08/12 13:14:48;;;;;;;4.85;2.08;;;;;;;29.19;29.41;95714.16;10332277;28;97116;-60
2022/08/12 13:19:54;;;;;;;;;;;;;;;28.95;30.15;95709.50;10335030;28;96643;-60
2022/08/12 13:25:00;;;;;;;4.85;2.05;;;;;;;29.43;29.75;95708.09;10334670;28;97134;-59
2022/08/12 13:30:08;;;;;;;3.17;1.83;;;;;;;29.75;29.20;95699.53;10339256;28;96946;-61
2022/08/12 13:35:15;;;;;;;4.43;2.00;;;;;;;29.95;28.73;95698.50;10340789;28;98039;-61
2022/08/12 13:40:25;;;;;;;2.72;2.00;;;;;;;30.24;28.39;95686.94;10340923;28;97044;-60
2022/08/12 13:45:29;;;;;;;2.95;2.13;;;;;;;30.78;27.70;95693.06;10340227;28;96886;-61
2022/08/12 13:50:36;;;;;;;3.00;2.25;;;;;;;30.88;27.19;95692.09;10337940;28;96834;-61
2022/08/12 13:55:44;;;;;;;4.30;2.00;;;;;;;31.00;27.05;95689.78;10339921;28;99061;-61
2022/08/12 14:00:49;;;;;;;4.75;2.03;;;;;;;31.04;27.03;95683.50;10336759;28;97919;-62
2022/08/12 14:05:54;;;;;;;3.30;2.10;;;;;;;31.12;26.90;95676.66;10338466;28;97187;-60
2022/08/12 14:10:59;;;;;;;3.30;1.98;;;;;;;31.24;26.92;95676.19;10340339;28;96983;-61
2022/08/12 14:16:03;;;;;;;3.10;1.90;;;;;;;31.31;26.40;95667.72;10339173;28;97024;-61
2022/08/12 14:21:09;;;;;;;2.10;1.70;;;;;;;31.74;26.00;95662.97;10340100;28;96831;-61
2022/08/12 14:26:23;;;;;;;5.00;1.88;;;;;;;32.25;25.90;95658.56;10329100;28;96992;-60
2022/08/12 14:31:26;;;;;;;2.00;1.80;;;;;;;33.25;24.86;95662.41;10338218;28;96896;-60
2022/08/12 14:36:33;;;;;;;4.63;2.00;;;;;;;34.66;23.38;95662.00;10338486;28;97049;-61
2022/08/12 14:41:38;;;;;;;3.58;1.80;;;;;;;36.11;21.87;95656.38;10332013;28;96751;-61
2022/08/12 14:46:59;;;;;;;;;;;;;;;37.36;22.35;95657.69;10336483;28;96747;-62
2022/08/12 14:52:09;;;;;;;3.10;1.52;;;;;;;38.24;20.37;95644.78;10337731;28;98100;-61
2022/08/12 14:57:34;;;;;;;2.25;1.63;;;;;;;38.63;19.70;95644.41;10334965;28;97182;-61
2022/08/12 15:02:56;;;;;;;4.13;1.80;;;;;;;39.25;19.36;95647.81;10333149;28;98586;-61
2022/08/12 15:07:59;;;;;;;6.22;1.90;;;;;;;39.33;18.92;95646.84;10337645;28;96834;-61
2022/08/12 15:13:11;;;;;;;2.53;1.70;;;;;;;38.52;19.62;95646.00;10338716;28;96859;-61
2022/08/12 15:18:18;;;;;;;1.70;1.60;;;;;;;37.95;19.80;95640.28;10330834;28;97594;-61
2022/08/12 15:23:24;;;;;;;2.55;1.67;;;;;;;37.84;19.44;95637.22;10336977;28;97817;-61
2022/08/12 15:28:36;;;;;;;3.43;1.60;;;;;;;37.87;19.69;95641.97;10336761;28;97788;-61
2022/08/12 15:33:41;;;;;;;2.97;1.70;;;;;;;37.07;19.75;95626.66;10336881;28;96705;-61
2022/08/12 15:38:48;;;;;;;3.20;1.90;;;;;;;36.08;20.57;95636.84;10337193;28;97928;-61
2022/08/12 15:43:55;;;;;;;4.00;1.75;;;;;;;35.95;20.86;95632.44;10336340;28;99213;-61
2022/08/12 15:49:18;;;;;;;2.40;1.73;;;;;;;35.06;21.73;95626.63;10335590;28;97064;-61
2022/08/12 15:54:22;;;;;;;3.20;2.00;;;;;;;33.82;22.84;95627.44;10337272;28;96834;-60
2022/08/12 15:59:38;;;;;;;5.07;2.03;;;;;;;33.50;23.07;95609.56;10333593;28;97012;-61
2022/08/12 16:05:01;;;;;;;4.70;2.00;;;;;;;33.19;23.45;95620.38;10339849;28;97278;-61
2022/08/12 16:10:26;;;;;;;2.17;1.90;;;;;;;32.58;24.52;95620.63;10336269;28;96834;-60
2022/08/12 16:15:36;;;;;;;2.70;1.85;;;;;;;32.52;24.23;95611.00;10335656;28;96838;-61
2022/08/12 16:20:45;;;;;;;5.45;1.92;;;;;;;32.01;24.83;95610.13;10335078;28;97903;-62
2022/08/12 16:25:49;;;;;;;4.43;1.90;;;;;;;31.67;25.22;95615.88;10330437;28;98961;-60
2022/08/12 16:31:13;;;;;;;4.25;1.98;;;;;;;31.18;25.66;95610.72;10332497;28;97404;-61
2022/08/12 16:36:25;;;;;;;6.15;2.30;;;;;;;31.14;25.71;95609.72;10335593;28;97291;-60
2022/08/12 16:41:28;;;;;;;2.78;1.70;;;;;;;30.82;26.19;95613.97;10338724;28;98596;-64
2022/08/12 16:46:43;;;;;;;2.75;2.25;;;;;;;30.41;26.05;95611.81;10322330;28;96785;-63
2022/08/12 16:51:59;;;;;;;4.07;1.90;;;;;;;30.57;25.60;95617.00;10335988;28;96869;-62
2022/08/12 16:57:08;;;;;;;3.33;1.92;;;;;;;30.24;25.74;95608.81;10335408;28;96898;-63
2022/08/12 17:02:13;;;;;;;2.28;1.77;;;;;;;29.93;25.90;95604.53;10338352;28;97396;-62
2022/08/12 17:07:36;;;;;;;3.10;1.90;;;;;;;29.67;25.81;95616.69;10338782;28;98548;-63
2022/08/12 17:12:45;;;;;;;2.38;2.05;;;;;;;29.42;25.88;95613.13;10341948;28;98323;-63
2022/08/12 17:17:50;;;;;;;;;;;;;;;29.27;26.08;95614.06;10344884;28;99284;-62
2022/08/12 17:23:14;;;;;;;4.85;1.70;;;;;;;29.47;25.35;95615.78;10356120;28;98627;-62
2022/08/12 17:28:20;;;;;;;7.63;1.70;;;;;;;30.84;23.81;95617.19;10340411;28;96916;-63
2022/08/12 17:33:25;;;;;;;4.07;1.48;;;;;;;32.38;22.65;95626.44;10346153;28;99077;-63
2022/08/12 17:38:29;;;;;;;3.53;1.40;;;;;;;33.32;21.46;95626.81;10350542;28;97142;-62
2022/08/12 17:43:32;;;;;;;3.15;1.45;;;;;;;33.32;21.16;95624.88;10336664;28;98012;-62
2022/08/12 17:48:56;;;;;;;;;;;;;;;32.38;22.26;95631.84;10344901;28;98683;-63
2022/08/12 17:54:00;;;;;;;11.18;9.25;;;;;;;31.33;22.89;95619.66;10341227;28;97475;-66
2022/08/12 17:59:15;;;;;;;4.38;2.78;;;;;;;30.43;23.48;95628.50;10343125;28;97712;-63
2022/08/12 18:04:42;;;;;;;2.63;1.63;;;;;;;29.61;24.04;95633.97;10333016;28;98722;-63
2022/08/12 18:10:07;;;;;;;3.25;1.77;;;;;;;28.99;25.06;95640.63;10334702;28;99346;-62
2022/08/12 18:15:12;;;;;;;4.90;1.67;;;;;;;28.52;25.79;95646.53;10333162;28;96803;-63
2022/08/12 18:20:38;;;;;;;3.92;1.90;;;;;;;28.13;26.86;95655.25;10336961;28;98857;-65
2022/08/12 18:31:22;;;;;;;3.72;1.95;;;;;;;27.20;27.98;95646.50;10333274;28;98408;-64
2022/08/12 18:36:28;;;;;;;3.90;1.80;;;;;;;27.00;27.54;95656.13;10343233;28;98949;-62
2022/08/12 18:41:34;;;;;;;6.80;1.80;;;;;;;26.69;27.08;95658.72;10337342;28;97651;-65
2022/08/12 18:46:47;;;;;;;5.03;1.70;;;;;;;26.46;27.43;95665.34;10339570;28;98726;-62
2022/08/12 18:52:00;;;;;;;2.70;1.60;;;;;;;26.27;26.99;95672.22;10338269;28;97598;-64
2022/08/12 18:57:07;;;;;;;2.63;1.35;;;;;;;26.05;26.77;95672.34;10337979;28;97606;-66
2022/08/12 19:02:18;;;;;;;3.45;1.63;;;;;;;25.91;26.15;95664.81;10336973;28;98224;-62
2022/08/12 19:07:27;;;;;;;3.28;1.75;;;;;;;25.86;26.69;95680.84;10338125;28;97842;-61
2022/08/12 19:18:13;;;;;;;3.03;1.23;;;;;;;25.66;26.43;95689.50;10337968;28;99207;-61
2022/08/12 19:23:18;;;;;;;2.20;1.57;;;;;;;25.56;26.54;95687.56;10339807;28;98121;-63
2022/08/12 19:28:26;;;;;;;9.82;6.72;;;;;;;25.46;26.37;95690.16;10329258;28;97096;-61
2022/08/12 19:33:38;;;;;;;1.87;1.30;;;;;;;25.37;26.14;95695.16;10338541;28;97924;-62
2022/08/12 19:38:55;;;;;;;2.65;1.80;;;;;;;25.33;26.30;95701.25;10330740;28;98899;-62
2022/08/12 19:43:59;;;;;;;2.42;1.80;;;;;;;25.32;26.48;95708.50;10341217;28;99070;-63
2022/08/12 19:49:21;;;;;;;4.10;2.35;;;;;;;25.21;26.35;95710.25;10342504;28;98660;-61
2022/08/12 19:54:26;;;;;;;2.50;1.60;;;;;;;25.19;26.15;95715.03;10336212;28;96841;-61
2022/08/12 19:59:35;;;;;;;5.43;1.30;;;;;;;25.14;26.33;95717.66;10341184;28;98721;-63
2022/08/12 20:05:03;;;;;;;3.33;1.40;;;;;;;24.99;26.66;95731.69;10334750;28;97274;-63
2022/08/12 20:10:32;;;;;;;1.92;1.27;;;;;;;24.84;26.91;95726.19;10335765;28;97033;-62
2022/08/12 20:15:38;;;;;;;3.47;1.10;;;;;;;24.72;26.78;95733.50;10333707;28;96903;-62
2022/08/12 20:20:46;;;;;;;3.65;1.30;;;;;;;24.61;26.74;95727.22;10330111;28;99448;-62
2022/08/12 20:25:51;;;;;;;3.35;1.40;;;;;;;24.55;26.98;95725.53;10338723;28;98446;-62
2022/08/12 20:31:10;;;;;;;2.95;1.90;;;;;;;24.46;27.39;95731.31;10333304;28;97100;-61
2022/08/12 20:36:16;;;;;;;3.40;1.65;;;;;;;24.40;26.93;95737.66;10335864;28;97624;-61
2022/08/12 20:41:41;;;;;;;3.85;1.70;;;;;;;24.35;27.46;95736.75;10329927;28;98773;-63
2022/08/12 20:46:45;;;;;;;3.75;1.50;;;;;;;24.29;27.27;95741.22;10321522;28;98472;-65
2022/08/12 20:51:53;;;;;;;3.28;1.40;;;;;;;24.19;27.63;95738.44;10327878;28;97257;-65
2022/08/12 20:56:59;;;;;;;2.58;1.25;;;;;;;24.16;26.90;95738.91;10327390;28;98206;-61
2022/08/12 21:02:03;;;;;;;1.70;1.50;;;;;;;24.09;27.50;95728.44;10331870;28;97940;-62
2022/08/12 21:07:08;;;;;;;2.53;1.40;;;;;;;24.04;27.02;95734.47;10333307;28;97393;-61
2022/08/12 21:12:17;;;;;;;1.83;1.20;;;;;;;24.01;27.75;95742.16;10335584;28;98434;-62
2022/08/12 21:17:32;;;;;;;3.60;1.40;;;;;;;23.93;27.33;95736.19;10332389;28;98565;-62
2022/08/12 21:22:55;;;;;;;3.67;1.55;;;;;;;23.85;28.01;95743.78;10323325;28;97717;-62
2022/08/12 21:28:05;;;;;;;4.15;1.30;;;;;;;23.79;28.07;95744.75;10330673;28;98504;-62
2022/08/12 21:33:09;;;;;;;3.08;1.50;;;;;;;23.72;28.33;95740.41;10332516;28;98147;-62
2022/08/12 21:38:16;;;;;;;5.93;1.50;;;;;;;23.67;28.27;95737.66;10327247;28;97426;-63
2022/08/12 21:43:21;;;;;;;2.83;1.38;;;;;;;23.57;28.28;95734.84;10333834;28;96911;-62
2022/08/12 21:48:24;;;;;;;3.60;1.40;;;;;;;23.52;27.90;95751.53;10325529;28;98656;-63
2022/08/12 21:53:28;;;;;;;5.72;1.92;;;;;;;23.46;28.26;95746.34;10337316;28;98263;-61
2022/08/12 21:58:52;;;;;;;1.73;1.27;;;;;;;23.35;28.33;95748.06;10331934;28;98040;-61
2022/08/12 22:09:17;;;;;;;2.45;1.40;;;;;;;23.17;28.69;95762.38;10339079;28;97085;-62
2022/08/12 22:14:22;;;;;;;1.40;1.17;;;;;;;23.07;29.33;95760.31;10351120;28;96862;-61
2022/08/12 22:19:25;;;;;;;2.30;1.50;;;;;;;23.00;29.04;95770.31;10343142;28;96840;-62
2022/08/12 22:24:29;;;;;;;2.67;1.30;;;;;;;22.92;29.05;95762.69;10335661;28;98457;-61
2022/08/12 22:35:27;;;;;;;2.55;1.50;;;;;;;22.73;29.91;95772.72;10334696;28;96822;-61
2022/08/12 22:40:26;;;;;;;2.55;1.50;;;;;;;22.62;29.81;95769.84;10333621;28;97429;-61
2022/08/12 22:51:00;;;;;;;2.17;1.27;;;;;;;22.25;30.45;95785.28;10338396;28;97979;-61
2022/08/12 22:56:06;;;;;;;3.50;1.40;;;;;;;22.10;30.92;95771.63;10338948;28;97512;-61
2022/08/12 23:01:11;;;;;;;2.78;1.60;;;;;;;21.87;30.60;95779.34;10332849;28;99021;-61
2022/08/12 23:06:33;;;;;;;3.30;1.20;;;;;;;21.73;31.16;95777.97;10337199;28;98252;-60
2022/08/12 23:11:36;;;;;;;3.15;1.55;;;;;;;21.55;31.50;95773.50;10341919;28;97136;-63
2022/08/12 23:16:48;;;;;;;3.22;1.40;;;;;;;21.27;32.32;95779.44;10347417;28;96999;-61
2022/08/12 23:21:57;;;;;;;2.03;1.38;;;;;;;21.01;33.67;95783.28;10338637;28;99202;-61
2022/08/12 23:32:55;;;;;;;2.17;1.58;;;;;;;20.60;33.68;95768.84;10345297;28;97203;-61
2022/08/12 23:38:02;;;;;;;3.08;1.23;;;;;;;20.41;33.77;95773.31;10335686;28;97629;-61
2022/08/12 23:43:05;;;;;;;2.72;1.35;;;;;;;20.29;34.18;95771.44;10336686;28;97495;-62
2022/08/12 23:48:15;;;;;;;2.67;1.20;;;;;;;20.28;34.04;95771.66;10343864;28;98101;-62
2022/08/12 23:53:32;;;;;;;2.72;1.60;;;;;;;20.11;34.24;95763.44;10335720;28;96919;-62
2022/08/12 23:58:36;;;;;;;2.45;1.33;;;;;;;20.01;35.20;95763.97;10331575;28;96893;-61
